createdAt,value
2022-09-03T00:00:26.974Z,15.51
2022-09-03T00:03:02.727Z,15.43
2022-09-03T00:05:41.729Z,15.51
2022-09-03T00:08:20.955Z,15.48
2022-09-03T00:10:59.550Z,15.42
2022-09-03T00:13:33.411Z,15.46
2022-09-03T00:16:03.431Z,15.42
2022-09-03T00:18:35.016Z,15.37
2022-09-03T00:21:08.755Z,15.41
2022-09-03T00:23:41.552Z,15.37
2022-09-03T00:26:23.020Z,15.25
2022-09-03T00:29:04.900Z,15.35
2022-09-03T00:31:38.976Z,15.35
2022-09-03T00:34:32.546Z,15.34
2022-09-03T00:36:59.280Z,15.25
2022-09-03T00:39:28.238Z,15.28
2022-09-03T00:42:08.125Z,15.28
2022-09-03T00:45:01.772Z,15.25
2022-09-03T00:47:49.020Z,15.27
2022-09-03T00:50:22.075Z,15.27
2022-09-03T00:53:17.218Z,15.24
2022-09-03T00:56:16.405Z,15.18
2022-09-03T00:59:18.883Z,15.26
2022-09-03T01:02:05.984Z,15.25
2022-09-03T01:04:42.401Z,15.27
2022-09-03T01:07:35.679Z,15.21
2022-09-03T01:10:21.178Z,15.13
2022-09-03T01:12:56.700Z,15.08
2022-09-03T01:15:36.174Z,15.05
2022-09-03T01:18:24.585Z,15.05
2022-09-03T01:21:29.061Z,15.08
2022-09-03T01:24:07.528Z,15.15
2022-09-03T01:26:59.252Z,15.18
2022-09-03T01:29:35.293Z,15.19
2022-09-03T01:32:15.380Z,15.21
2022-09-03T01:35:06.611Z,15.25
2022-09-03T01:37:38.993Z,15.27
2022-09-03T01:40:24.365Z,15.27
2022-09-03T01:43:09.680Z,15.27
2022-09-03T01:46:00.528Z,15.20
2022-09-03T01:48:32.585Z,15.14
2022-09-03T01:51:00.338Z,15.16
2022-09-03T01:54:06.751Z,15.20
2022-09-03T01:57:15.114Z,15.01
2022-09-03T02:00:00.282Z,15.08
2022-09-03T02:02:28.668Z,15.10
2022-09-03T02:05:08.145Z,15.09
2022-09-03T02:07:38.480Z,15.09
2022-09-03T02:10:09.145Z,15.09
2022-09-03T02:12:38.709Z,15.08
2022-09-03T02:15:12.440Z,14.87
2022-09-03T02:17:42.146Z,15.00
2022-09-03T02:20:12.261Z,14.95
2022-09-03T02:22:40.617Z,15.00
2022-09-03T02:25:11.077Z,15.03
2022-09-03T02:27:39.208Z,15.00
2022-09-03T02:30:06.789Z,14.87
2022-09-03T02:32:33.694Z,14.91
2022-09-03T02:35:00.506Z,14.94
2022-09-03T02:37:27.486Z,14.97
2022-09-03T02:39:54.865Z,14.93
2022-09-03T02:42:21.945Z,14.95
2022-09-03T02:44:55.425Z,14.94
2022-09-03T02:47:24.771Z,14.99
2022-09-03T02:49:51.599Z,14.92
2022-09-03T02:52:18.436Z,14.92
2022-09-03T02:54:45.961Z,14.90
2022-09-03T02:57:15.960Z,14.89
2022-09-03T02:59:44.633Z,14.87
2022-09-03T03:02:13.897Z,14.75
2022-09-03T03:04:41.139Z,14.80
2022-09-03T03:07:08.375Z,14.78
2022-09-03T03:09:35.233Z,14.77
2022-09-03T03:12:02.320Z,14.70
2022-09-03T03:14:29.139Z,14.69
2022-09-03T03:16:56.015Z,14.64
2022-09-03T03:19:22.858Z,14.69
2022-09-03T03:21:49.570Z,14.63
2022-09-03T03:24:16.426Z,14.66
2022-09-03T03:26:43.290Z,14.67
2022-09-03T03:29:17.475Z,14.55
2022-09-03T03:31:44.215Z,14.72
2022-09-03T03:34:11.055Z,14.74
2022-09-03T03:36:38.053Z,14.80
2022-09-03T03:39:04.918Z,14.75
2022-09-03T03:41:34.696Z,14.74
2022-09-03T03:44:07.013Z,14.69
2022-09-03T03:46:39.313Z,14.81
2022-09-03T03:49:08.009Z,14.89
2022-09-03T03:51:36.164Z,14.92
2022-09-03T03:54:05.313Z,14.93
2022-09-03T03:56:33.108Z,15.01
2022-09-03T03:59:00.493Z,15.02
2022-09-03T04:01:28.990Z,15.02
2022-09-03T04:03:57.422Z,15.02
2022-09-03T04:06:24.519Z,15.00
2022-09-03T04:08:51.395Z,15.03
2022-09-03T04:11:21.442Z,15.02
2022-09-03T04:13:49.309Z,15.00
2022-09-03T04:16:25.169Z,15.01
2022-09-03T04:18:53.822Z,15.01
2022-09-03T04:21:23.420Z,15.02
2022-09-03T04:23:51.658Z,15.04
2022-09-03T04:26:25.066Z,15.10
2022-09-03T04:28:52.344Z,15.07
2022-09-03T04:31:20.971Z,15.12
2022-09-03T04:33:47.920Z,15.14
2022-09-03T04:36:20.617Z,15.10
2022-09-03T04:38:49.633Z,15.22
2022-09-03T04:41:19.074Z,15.21
2022-09-03T04:43:48.305Z,15.18
2022-09-03T04:46:18.865Z,15.18
2022-09-03T04:48:51.349Z,15.14
2022-09-03T04:51:24.056Z,15.15
2022-09-03T04:53:59.786Z,15.15
2022-09-03T04:56:29.983Z,15.17
2022-09-03T04:58:59.119Z,15.22
2022-09-03T05:01:28.751Z,15.21
2022-09-03T05:03:56.687Z,15.18
2022-09-03T05:06:25.778Z,15.12
2022-09-03T05:08:53.993Z,15.14
2022-09-03T05:11:21.763Z,14.98
2022-09-03T05:13:49.692Z,14.96
2022-09-03T05:16:17.830Z,15.01
2022-09-03T05:18:45.292Z,14.88
2022-09-03T05:21:16.019Z,14.92
2022-09-03T05:23:44.967Z,14.94
2022-09-03T05:26:17.445Z,14.90
2022-09-03T05:28:45.637Z,14.86
2022-09-03T05:31:18.424Z,14.86
2022-09-03T05:33:47.682Z,14.88
2022-09-03T05:36:23.100Z,14.85
2022-09-03T05:38:50.665Z,14.90
2022-09-03T05:41:18.947Z,14.94
2022-09-03T05:43:56.049Z,14.95
2022-09-03T05:46:31.711Z,14.94
2022-09-03T05:49:03.950Z,14.79
2022-09-03T05:51:31.321Z,15.05
2022-09-03T05:53:58.735Z,15.04
2022-09-03T05:56:28.128Z,15.06
2022-09-03T05:58:57.943Z,15.10
2022-09-03T06:01:27.185Z,15.19
2022-09-03T06:04:26.601Z,15.18
2022-09-03T06:16:30.616Z,15.37
2022-09-03T06:19:11.006Z,15.39
2022-09-03T06:32:19.045Z,15.74
2022-09-03T06:34:47.472Z,15.66
2022-09-03T06:37:15.153Z,15.73
2022-09-03T06:39:42.059Z,15.96
2022-09-03T06:42:09.718Z,15.88
2022-09-03T06:44:37.431Z,16.03
2022-09-03T06:47:04.707Z,16.10
2022-09-03T06:49:31.661Z,16.19
2022-09-03T06:51:59.984Z,16.27
2022-09-03T06:54:27.115Z,16.38
2022-09-03T06:56:54.544Z,16.41
2022-09-03T06:59:21.483Z,16.55
2022-09-03T07:01:48.818Z,16.65
2022-09-03T07:04:19.178Z,16.78
2022-09-03T07:06:47.414Z,16.85
2022-09-03T07:09:15.985Z,16.94
2022-09-03T07:11:47.468Z,17.04
2022-09-03T07:14:15.433Z,17.23
2022-09-03T07:16:43.523Z,17.15
2022-09-03T07:19:10.748Z,17.32
2022-09-03T07:21:37.999Z,17.22
2022-09-03T07:24:06.106Z,17.32
2022-09-03T07:26:35.589Z,17.33
2022-09-03T07:29:03.107Z,17.26
2022-09-03T07:31:33.702Z,17.30
2022-09-03T07:34:10.171Z,17.42
2022-09-03T07:36:41.741Z,17.30
2022-09-03T07:39:11.892Z,17.44
2022-09-03T07:41:43.317Z,17.44
2022-09-03T07:44:10.705Z,17.34
2022-09-03T07:46:38.543Z,17.41
2022-09-03T07:49:06.441Z,17.44
2022-09-03T07:51:38.550Z,17.36
2022-09-03T07:54:09.233Z,17.46
2022-09-03T07:56:36.863Z,17.25
2022-09-03T07:59:05.445Z,17.57
2022-09-03T08:01:33.960Z,17.69
2022-09-03T08:04:04.404Z,17.77
2022-09-03T08:06:32.830Z,17.84
2022-09-03T08:09:05.269Z,17.86
2022-09-03T08:11:35.287Z,17.85
2022-09-03T08:14:06.667Z,17.92
2022-09-03T08:16:51.641Z,18.00
2022-09-03T08:19:19.445Z,18.01
2022-09-03T08:21:46.500Z,18.04
2022-09-03T08:24:16.156Z,18.11
2022-09-03T08:26:47.910Z,18.28
2022-09-03T08:29:18.884Z,18.41
2022-09-03T08:31:46.178Z,18.69
2022-09-03T08:34:14.960Z,18.86
2022-09-03T08:36:43.126Z,18.86
2022-09-03T08:39:11.452Z,19.02
2022-09-03T08:41:49.255Z,18.83
2022-09-03T08:44:21.980Z,19.11
2022-09-03T08:46:55.665Z,19.14
2022-09-03T08:49:49.517Z,19.26
2022-09-03T08:52:40.937Z,19.80
2022-09-03T08:55:25.720Z,19.98
2022-09-03T08:58:18.587Z,20.19
2022-09-03T09:01:03.557Z,20.41
2022-09-03T09:03:48.887Z,20.52
2022-09-03T09:06:34.250Z,20.44
2022-09-03T09:09:22.763Z,20.67
2022-09-03T09:12:04.686Z,20.90
2022-09-03T09:14:50.208Z,21.16
2022-09-03T09:17:47.728Z,21.05
2022-09-03T09:20:38.137Z,21.13
2022-09-03T09:23:13.616Z,20.97
2022-09-03T09:25:51.186Z,21.28
2022-09-03T09:28:23.513Z,21.42
2022-09-03T09:30:55.649Z,21.40
2022-09-03T09:33:23.998Z,21.25
2022-09-03T09:35:53.465Z,21.10
2022-09-03T09:38:31.289Z,21.08
2022-09-03T09:41:12.623Z,21.08
2022-09-03T09:43:39.936Z,21.20
2022-09-03T09:46:14.448Z,21.35
2022-09-03T09:48:59.170Z,21.25
2022-09-03T09:51:31.371Z,21.30
2022-09-03T09:54:28.083Z,21.26
2022-09-03T09:57:03.730Z,21.11
2022-09-03T09:59:31.532Z,21.15
2022-09-03T10:02:22.099Z,21.15
2022-09-03T10:04:50.089Z,20.90
2022-09-03T10:07:31.809Z,20.93
2022-09-03T10:10:18.355Z,20.97
2022-09-03T10:12:51.765Z,21.06
2022-09-03T10:15:52.524Z,21.34
2022-09-03T10:18:44.514Z,21.47
2022-09-03T10:21:15.761Z,21.61
2022-09-03T10:24:15.764Z,21.67
2022-09-03T10:26:46.123Z,21.71
2022-09-03T10:29:20.197Z,21.88
2022-09-03T10:32:20.025Z,22.17
2022-09-03T10:35:10.570Z,22.50
2022-09-03T10:37:54.793Z,22.57
2022-09-03T10:40:37.210Z,22.63
2022-09-03T10:43:07.018Z,22.81
2022-09-03T10:45:49.232Z,22.60
2022-09-03T10:48:55.191Z,23.00
2022-09-03T10:51:49.580Z,23.13
2022-09-03T10:54:49.106Z,23.35
2022-09-03T10:57:30.150Z,23.48
2022-09-03T11:00:09.542Z,23.72
2022-09-03T11:02:45.508Z,23.79
2022-09-03T11:05:19.114Z,23.82
2022-09-03T11:08:12.134Z,24.23
2022-09-03T11:10:46.982Z,24.04
2022-09-03T11:13:39.679Z,24.43
2022-09-03T11:16:14.962Z,24.57
2022-09-03T11:18:49.679Z,24.44
2022-09-03T11:21:21.378Z,24.88
2022-09-03T11:24:05.829Z,24.94
2022-09-03T11:26:35.364Z,24.80
2022-09-03T11:29:45.867Z,24.92
2022-09-03T11:32:22.035Z,25.29
2022-09-03T11:34:55.996Z,25.88
2022-09-03T11:37:26.061Z,25.91
2022-09-03T11:40:20.272Z,25.93
2022-09-03T11:42:47.710Z,25.46
2022-09-03T11:45:35.884Z,25.07
2022-09-03T11:48:16.567Z,24.82
2022-09-03T11:50:53.257Z,24.28
2022-09-03T11:53:20.092Z,24.11
2022-09-03T11:55:53.807Z,24.33
2022-09-03T11:58:42.989Z,24.58
2022-09-03T12:01:16.081Z,24.36
2022-09-03T12:03:48.800Z,24.52
2022-09-03T12:06:37.003Z,24.66
2022-09-03T12:09:42.145Z,25.17
2022-09-03T12:12:35.499Z,25.49
2022-09-03T12:15:53.581Z,25.00
2022-09-03T12:18:31.218Z,25.42
2022-09-03T12:21:05.204Z,26.22
2022-09-03T12:23:39.988Z,26.13
2022-09-03T12:26:12.463Z,26.57
2022-09-03T12:28:43.874Z,26.72
2022-09-03T12:31:22.901Z,27.42
2022-09-03T12:33:54.620Z,28.68
2022-09-03T12:36:23.250Z,28.55
2022-09-03T12:39:11.081Z,28.85
2022-09-03T12:41:38.773Z,29.35
2022-09-03T12:44:05.893Z,29.24
2022-09-03T12:46:34.597Z,29.52
2022-09-03T12:52:03.129Z,30.41
2022-09-03T12:54:37.069Z,30.13
2022-09-03T12:57:04.725Z,29.61
2022-09-03T12:59:36.929Z,29.12
2022-09-03T13:02:14.274Z,29.33
2022-09-03T13:04:42.366Z,29.91
2022-09-03T13:07:14.012Z,29.20
2022-09-03T13:09:42.289Z,28.17
2022-09-03T13:12:22.572Z,28.41
2022-09-03T13:14:52.785Z,28.60
2022-09-03T13:17:47.681Z,28.46
2022-09-03T13:20:35.163Z,28.09
2022-09-03T13:23:35.826Z,28.00
2022-09-03T13:26:22.969Z,27.82
2022-09-03T13:29:40.116Z,27.34
2022-09-03T13:32:17.092Z,27.69
2022-09-03T13:34:53.120Z,28.53
2022-09-03T13:37:42.512Z,28.55
2022-09-03T13:40:23.563Z,27.60
2022-09-03T13:43:27.041Z,27.15
2022-09-03T13:46:02.385Z,26.84
2022-09-03T13:49:08.214Z,26.91
2022-09-03T13:51:44.631Z,26.45
2022-09-03T13:54:49.916Z,27.29
2022-09-03T13:58:01.868Z,27.81
2022-09-03T14:00:52.378Z,27.82
2022-09-03T14:03:49.167Z,26.96
2022-09-03T14:06:47.896Z,26.35
2022-09-03T14:09:26.803Z,26.27
2022-09-03T14:12:06.343Z,26.96
2022-09-03T14:14:55.209Z,27.98
2022-09-03T14:17:41.728Z,27.52
2022-09-03T14:20:33.441Z,27.42
2022-09-03T14:23:00.274Z,26.77
2022-09-03T14:25:28.503Z,26.93
2022-09-03T14:28:12.633Z,27.65
2022-09-03T14:31:08.425Z,28.34
2022-09-03T14:33:56.799Z,28.76
2022-09-03T14:36:37.650Z,29.08
2022-09-03T14:39:26.701Z,29.53
2022-09-03T14:42:03.928Z,29.95
2022-09-03T14:44:48.679Z,30.50
2022-09-03T14:47:30.360Z,30.82
2022-09-03T14:50:06.287Z,30.99
2022-09-03T14:53:10.511Z,31.12
2022-09-03T14:56:10.803Z,31.23
2022-09-03T14:59:09.830Z,30.98
2022-09-03T15:01:38.968Z,30.96
2022-09-03T15:04:18.380Z,31.13
2022-09-03T15:07:36.136Z,31.08
2022-09-03T15:10:06.114Z,31.13
2022-09-03T15:12:41.579Z,31.20
2022-09-03T15:15:33.718Z,31.28
2022-09-03T15:18:10.878Z,30.89
2022-09-03T15:20:53.777Z,30.65
2022-09-03T15:23:47.252Z,30.92
2022-09-03T15:26:23.098Z,30.68
2022-09-03T15:29:11.723Z,30.09
2022-09-03T15:31:52.401Z,30.17
2022-09-03T15:34:48.758Z,30.49
2022-09-03T15:37:27.788Z,29.92
2022-09-03T15:40:07.308Z,29.34
2022-09-03T15:42:36.926Z,29.23
2022-09-03T15:45:21.813Z,28.86
2022-09-03T15:48:14.026Z,28.69
2022-09-03T15:51:14.292Z,28.50
2022-09-03T15:53:57.014Z,28.50
2022-09-03T15:56:38.945Z,28.89
2022-09-03T15:59:30.603Z,29.11
2022-09-03T16:02:03.867Z,28.79
2022-09-03T16:04:55.976Z,28.65
2022-09-03T16:07:38.615Z,28.48
2022-09-03T16:10:25.145Z,28.11
2022-09-03T16:13:32.984Z,27.76
2022-09-03T16:16:28.269Z,26.99
2022-09-03T16:19:01.689Z,26.74
2022-09-03T16:21:57.572Z,26.31
2022-09-03T16:24:37.724Z,26.32
2022-09-03T16:27:11.283Z,25.70
2022-09-03T16:29:39.104Z,25.17
2022-09-03T16:32:27.561Z,24.09
2022-09-03T16:35:08.980Z,23.33
2022-09-03T16:37:36.414Z,22.76
2022-09-03T16:40:33.672Z,22.12
2022-09-03T16:43:40.252Z,21.57
2022-09-03T16:46:27.592Z,20.89
2022-09-03T16:49:22.068Z,20.58
2022-09-03T16:51:56.987Z,20.34
2022-09-03T16:54:38.624Z,20.00
2022-09-03T16:57:11.617Z,19.86
2022-09-03T16:59:59.748Z,19.68
2022-09-03T17:02:57.959Z,19.53
2022-09-03T17:06:15.810Z,19.32
2022-09-03T17:08:49.499Z,19.15
2022-09-03T17:11:34.296Z,18.98
2022-09-03T17:14:19.446Z,18.86
2022-09-03T17:17:19.125Z,18.80
2022-09-03T17:20:01.473Z,18.69
2022-09-03T17:22:53.608Z,18.69
2022-09-03T17:25:40.864Z,18.52
2022-09-03T17:28:30.471Z,18.59
2022-09-03T17:31:22.389Z,18.50
2022-09-03T17:34:08.137Z,18.56
2022-09-03T17:36:39.625Z,18.56
2022-09-03T17:39:12.614Z,18.52
2022-09-03T17:41:48.661Z,18.50
2022-09-03T17:44:34.051Z,18.47
2022-09-03T17:47:39.713Z,18.47
2022-09-03T17:50:14.172Z,18.45
2022-09-03T17:52:55.705Z,18.26
2022-09-03T17:55:42.810Z,18.29
2022-09-03T17:58:40.761Z,18.19
2022-09-03T18:01:10.724Z,18.24
2022-09-03T18:03:57.611Z,18.22
2022-09-03T18:06:55.145Z,18.18
2022-09-03T18:09:37.905Z,18.11
2022-09-03T18:12:34.458Z,18.12
2022-09-03T18:15:09.537Z,18.00
2022-09-03T18:17:46.962Z,17.72
2022-09-03T18:20:33.867Z,17.88
2022-09-03T18:23:30.307Z,17.41
2022-09-03T18:26:21.660Z,17.33
2022-09-03T18:29:21.000Z,17.33
2022-09-03T18:32:06.774Z,17.36
2022-09-03T18:34:54.456Z,17.27
2022-09-03T18:37:43.542Z,17.36
2022-09-03T18:40:40.742Z,17.44
2022-09-03T18:43:38.815Z,17.42
2022-09-03T18:50:01.674Z,17.19
2022-09-03T18:53:15.698Z,17.12
2022-09-03T18:56:28.026Z,17.11
2022-09-03T18:59:48.900Z,17.04
2022-09-03T19:02:52.641Z,17.08
2022-09-03T19:05:51.201Z,16.91
2022-09-03T19:09:02.887Z,16.98
2022-09-03T19:12:01.683Z,16.91
2022-09-03T19:15:15.443Z,16.94
2022-09-03T19:18:29.905Z,16.86
2022-09-03T19:21:46.931Z,16.74
2022-09-03T19:24:32.280Z,16.59
2022-09-03T19:27:59.956Z,16.43
2022-09-03T19:31:16.593Z,16.23
2022-09-03T19:34:33.694Z,16.14
2022-09-03T19:37:30.101Z,15.98
2022-09-03T19:40:18.613Z,15.89
2022-09-03T19:43:38.118Z,15.85
2022-09-03T19:47:05.768Z,15.86
2022-09-03T19:50:16.410Z,15.81
2022-09-03T19:53:30.940Z,15.78
2022-09-03T19:56:21.616Z,15.73
2022-09-03T19:59:21.753Z,15.58
2022-09-03T20:02:07.619Z,15.72
2022-09-03T20:05:06.595Z,15.65
2022-09-03T20:07:54.207Z,15.67
2022-09-03T20:10:25.565Z,15.67
2022-09-03T20:13:14.045Z,15.66
2022-09-03T20:16:06.129Z,15.65
2022-09-03T20:19:01.515Z,15.65
2022-09-03T20:21:46.443Z,15.60
2022-09-03T20:24:29.407Z,15.46
2022-09-03T20:27:17.983Z,15.38
2022-09-03T20:30:03.090Z,15.40
2022-09-03T20:33:02.595Z,15.33
2022-09-03T20:35:53.384Z,15.32
2022-09-03T20:38:54.017Z,15.29
2022-09-03T20:41:35.686Z,15.20
2022-09-03T20:44:17.703Z,15.10
2022-09-03T20:47:42.879Z,14.96
2022-09-03T20:50:43.741Z,14.92
2022-09-03T20:53:18.835Z,14.92
2022-09-03T20:55:55.681Z,14.86
2022-09-03T20:58:29.950Z,14.78
2022-09-03T21:01:05.386Z,14.69
2022-09-03T21:03:44.721Z,14.69
2022-09-03T21:06:20.323Z,14.46
2022-09-03T21:09:11.673Z,14.70
2022-09-03T21:12:01.286Z,14.52
2022-09-03T21:14:39.070Z,14.45
2022-09-03T21:17:24.570Z,14.51
2022-09-03T21:19:57.483Z,14.56
2022-09-03T21:22:55.496Z,14.53
2022-09-03T21:25:26.878Z,14.46
2022-09-03T21:28:08.070Z,14.39
2022-09-03T21:30:40.827Z,14.23
2022-09-03T21:33:23.501Z,14.17
2022-09-03T21:36:08.907Z,14.13
2022-09-03T21:38:38.626Z,14.00
2022-09-03T21:41:34.366Z,13.91
2022-09-03T21:44:07.152Z,13.87
2022-09-03T21:46:54.842Z,13.85
2022-09-03T21:49:38.693Z,13.81
2022-09-03T21:52:11.628Z,13.81
2022-09-03T21:54:38.417Z,13.75
2022-09-03T21:57:14.916Z,13.70
2022-09-03T21:59:48.155Z,13.72
2022-09-03T22:02:32.873Z,13.70
2022-09-03T22:05:00.919Z,13.64
2022-09-03T22:07:46.013Z,13.62
2022-09-03T22:10:34.229Z,13.52
2022-09-03T22:13:15.790Z,13.48
2022-09-03T22:15:48.193Z,13.45
2022-09-03T22:18:23.711Z,13.41
2022-09-03T22:21:23.463Z,13.38
2022-09-03T22:24:23.234Z,13.37
2022-09-03T22:26:51.373Z,13.37
2022-09-03T22:29:35.725Z,13.41
2022-09-03T22:32:24.956Z,13.41
2022-09-03T22:34:58.168Z,13.43
2022-09-03T22:37:34.451Z,13.44
2022-09-03T22:40:19.467Z,13.38
2022-09-03T22:42:46.206Z,13.41
2022-09-03T22:45:20.813Z,13.29
2022-09-03T22:48:31.146Z,13.26
2022-09-03T22:51:00.121Z,13.09
2022-09-03T22:54:04.010Z,12.99
2022-09-03T22:56:35.228Z,12.93
2022-09-03T22:59:21.594Z,12.85
2022-09-03T23:02:12.860Z,12.86
2022-09-03T23:04:57.774Z,12.83
2022-09-03T23:07:35.108Z,12.77
2022-09-03T23:10:11.732Z,12.76
2022-09-03T23:12:48.988Z,12.71
2022-09-03T23:15:30.488Z,12.73
2022-09-03T23:18:15.551Z,12.72
2022-09-03T23:20:55.879Z,12.72
2022-09-03T23:23:31.166Z,12.69
2022-09-03T23:26:30.417Z,12.60
2022-09-03T23:29:11.532Z,12.53
2022-09-03T23:31:38.733Z,12.45
2022-09-03T23:34:07.719Z,12.36
2022-09-03T23:37:33.146Z,12.34
2022-09-03T23:40:01.115Z,12.29
2022-09-03T23:42:55.770Z,12.22
2022-09-03T23:45:37.045Z,12.18
2022-09-03T23:48:14.665Z,12.11
2022-09-03T23:51:22.536Z,12.01
2022-09-03T23:54:11.068Z,11.94
2022-09-03T23:56:56.809Z,11.89
2022-09-03T23:59:42.356Z,11.83
